Terminal Aerodrome Forecast
Issued by NWS Tampa Bay Area, FL

Home | Current Version | Previous Version | Text Only | Print | Product List | Glossary On
Versions: 1 2 3 4 5 6 7 8 9 10 11 12 13 14 15
000
FTUS42 KTBW 301136
TAFFMY
TAF
KFMY 301136Z 3012/3112 VRB03KT P6SM VCSH SCT020 BKN035
      TEMPO 3012/3013 BKN020
     FM301400 26006KT P6SM VCTS BKN030CB BKN250
     FM301800 26012KT P6SM VCTS SCT030CB BKN250
     FM310000 VRB03KT P6SM FEW025 SCT250
     FM310900 VRB03KT P6SM VCTS SCT030CB SCT250=

USA.gov is the U.S. government's official web portal to all federal, state and local government web resources and services.